sensor_id;sensor_type;location;lat;lon;timestamp;P1;durP1;ratioP1;P2;durP2;ratioP2
3099;SDS011;1560;52.746;13.474;2023-09-19T00:00:42;7.47;;;3.43;;
3099;SDS011;1560;52.746;13.474;2023-09-19T00:03:13;5.00;;;2.43;;
3099;SDS011;1560;52.746;13.474;2023-09-19T00:05:42;4.40;;;2.13;;
3099;SDS011;1560;52.746;13.474;2023-09-19T00:08:11;4.50;;;2.87;;
3099;SDS011;1560;52.746;13.474;2023-09-19T00:10:40;4.27;;;2.87;;
3099;SDS011;1560;52.746;13.474;2023-09-19T00:13:09;5.40;;;2.70;;
3099;SDS011;1560;52.746;13.474;2023-09-19T00:15:39;5.70;;;3.07;;
3099;SDS011;1560;52.746;13.474;2023-09-19T00:18:11;8.60;;;3.50;;
3099;SDS011;1560;52.746;13.474;2023-09-19T00:20:41;10.80;;;3.60;;
3099;SDS011;1560;52.746;13.474;2023-09-19T00:23:12;5.03;;;2.60;;
3099;SDS011;1560;52.746;13.474;2023-09-19T00:25:40;4.93;;;3.40;;
3099;SDS011;1560;52.746;13.474;2023-09-19T00:28:09;7.63;;;3.67;;
3099;SDS011;1560;52.746;13.474;2023-09-19T00:30:37;6.63;;;3.40;;
3099;SDS011;1560;52.746;13.474;2023-09-19T00:33:08;5.67;;;3.13;;
3099;SDS011;1560;52.746;13.474;2023-09-19T00:35:37;8.70;;;3.40;;
3099;SDS011;1560;52.746;13.474;2023-09-19T00:38:06;6.07;;;3.00;;
3099;SDS011;1560;52.746;13.474;2023-09-19T00:40:44;6.00;;;2.80;;
3099;SDS011;1560;52.746;13.474;2023-09-19T00:43:12;5.30;;;4.23;;
3099;SDS011;1560;52.746;13.474;2023-09-19T00:45:43;4.53;;;2.60;;
3099;SDS011;1560;52.746;13.474;2023-09-19T00:48:21;4.67;;;3.53;;
3099;SDS011;1560;52.746;13.474;2023-09-19T00:50:52;4.07;;;2.77;;
3099;SDS011;1560;52.746;13.474;2023-09-19T00:53:21;6.63;;;3.10;;
3099;SDS011;1560;52.746;13.474;2023-09-19T00:55:59;7.70;;;4.00;;
3099;SDS011;1560;52.746;13.474;2023-09-19T00:58:29;11.20;;;3.40;;
3099;SDS011;1560;52.746;13.474;2023-09-19T01:01:00;5.70;;;2.37;;
3099;SDS011;1560;52.746;13.474;2023-09-19T01:03:43;5.20;;;2.67;;
3099;SDS011;1560;52.746;13.474;2023-09-19T01:06:12;4.47;;;2.90;;
3099;SDS011;1560;52.746;13.474;2023-09-19T01:08:41;3.80;;;2.50;;
3099;SDS011;1560;52.746;13.474;2023-09-19T01:11:11;4.10;;;2.70;;
3099;SDS011;1560;52.746;13.474;2023-09-19T01:13:46;4.83;;;2.63;;
3099;SDS011;1560;52.746;13.474;2023-09-19T01:16:19;4.77;;;2.50;;
3099;SDS011;1560;52.746;13.474;2023-09-19T01:19:02;13.03;;;3.50;;
3099;SDS011;1560;52.746;13.474;2023-09-19T01:21:30;4.90;;;2.90;;
3099;SDS011;1560;52.746;13.474;2023-09-19T01:24:15;5.03;;;3.50;;
3099;SDS011;1560;52.746;13.474;2023-09-19T01:27:12;6.43;;;3.10;;
3099;SDS011;1560;52.746;13.474;2023-09-19T01:29:47;5.43;;;2.80;;
3099;SDS011;1560;52.746;13.474;2023-09-19T01:32:18;6.27;;;3.57;;
3099;SDS011;1560;52.746;13.474;2023-09-19T01:34:50;3.90;;;2.80;;
3099;SDS011;1560;52.746;13.474;2023-09-19T01:37:22;5.37;;;2.77;;
3099;SDS011;1560;52.746;13.474;2023-09-19T01:39:53;5.57;;;3.00;;
3099;SDS011;1560;52.746;13.474;2023-09-19T01:42:29;5.83;;;2.93;;
3099;SDS011;1560;52.746;13.474;2023-09-19T01:44:59;3.90;;;2.53;;
3099;SDS011;1560;52.746;13.474;2023-09-19T01:47:41;3.73;;;2.60;;
3099;SDS011;1560;52.746;13.474;2023-09-19T01:50:16;4.63;;;2.83;;
3099;SDS011;1560;52.746;13.474;2023-09-19T01:52:48;5.67;;;3.10;;
3099;SDS011;1560;52.746;13.474;2023-09-19T01:55:26;5.93;;;2.57;;
3099;SDS011;1560;52.746;13.474;2023-09-19T01:58:00;6.70;;;2.60;;
3099;SDS011;1560;52.746;13.474;2023-09-19T02:00:37;4.13;;;2.77;;
3099;SDS011;1560;52.746;13.474;2023-09-19T02:03:09;2.77;;;2.13;;
3099;SDS011;1560;52.746;13.474;2023-09-19T02:05:38;5.30;;;3.10;;
3099;SDS011;1560;52.746;13.474;2023-09-19T02:08:07;3.87;;;2.80;;
3099;SDS011;1560;52.746;13.474;2023-09-19T02:10:36;5.10;;;2.40;;
3099;SDS011;1560;52.746;13.474;2023-09-19T02:13:13;3.70;;;2.20;;
3099;SDS011;1560;52.746;13.474;2023-09-19T02:15:44;5.37;;;2.40;;
3099;SDS011;1560;52.746;13.474;2023-09-19T02:18:13;4.73;;;2.40;;
3099;SDS011;1560;52.746;13.474;2023-09-19T02:20:42;5.63;;;2.67;;
3099;SDS011;1560;52.746;13.474;2023-09-19T02:23:12;4.03;;;2.23;;
3099;SDS011;1560;52.746;13.474;2023-09-19T02:25:41;3.67;;;2.43;;
3099;SDS011;1560;52.746;13.474;2023-09-19T02:28:11;3.70;;;2.20;;
3099;SDS011;1560;52.746;13.474;2023-09-19T02:30:39;5.37;;;2.60;;
3099;SDS011;1560;52.746;13.474;2023-09-19T02:33:08;6.33;;;3.33;;
3099;SDS011;1560;52.746;13.474;2023-09-19T02:35:45;5.97;;;3.10;;
3099;SDS011;1560;52.746;13.474;2023-09-19T02:38:13;5.03;;;2.07;;
3099;SDS011;1560;52.746;13.474;2023-09-19T02:40:51;3.63;;;2.20;;
3099;SDS011;1560;52.746;13.474;2023-09-19T02:43:21;4.40;;;2.50;;
3099;SDS011;1560;52.746;13.474;2023-09-19T02:45:50;4.87;;;2.77;;
3099;SDS011;1560;52.746;13.474;2023-09-19T02:48:20;6.37;;;3.50;;
3099;SDS011;1560;52.746;13.474;2023-09-19T02:50:49;8.23;;;2.90;;
3099;SDS011;1560;52.746;13.474;2023-09-19T02:53:18;5.43;;;3.20;;
3099;SDS011;1560;52.746;13.474;2023-09-19T02:55:47;6.97;;;2.60;;
3099;SDS011;1560;52.746;13.474;2023-09-19T02:58:24;5.63;;;2.43;;
3099;SDS011;1560;52.746;13.474;2023-09-19T03:00:54;5.07;;;2.77;;
3099;SDS011;1560;52.746;13.474;2023-09-19T03:03:22;5.97;;;2.67;;
3099;SDS011;1560;52.746;13.474;2023-09-19T03:05:51;3.57;;;2.10;;
3099;SDS011;1560;52.746;13.474;2023-09-19T03:08:19;4.73;;;2.40;;
3099;SDS011;1560;52.746;13.474;2023-09-19T03:10:57;4.13;;;2.90;;
3099;SDS011;1560;52.746;13.474;2023-09-19T03:13:27;6.57;;;2.63;;
3099;SDS011;1560;52.746;13.474;2023-09-19T03:15:57;3.23;;;2.27;;
3099;SDS011;1560;52.746;13.474;2023-09-19T03:18:34;2.63;;;2.17;;
3099;SDS011;1560;52.746;13.474;2023-09-19T03:21:03;4.60;;;2.60;;
3099;SDS011;1560;52.746;13.474;2023-09-19T03:23:32;3.57;;;2.60;;
3099;SDS011;1560;52.746;13.474;2023-09-19T03:26:00;3.60;;;1.97;;
3099;SDS011;1560;52.746;13.474;2023-09-19T03:28:37;3.23;;;2.13;;
3099;SDS011;1560;52.746;13.474;2023-09-19T03:31:07;5.30;;;2.97;;
3099;SDS011;1560;52.746;13.474;2023-09-19T03:33:36;5.00;;;2.70;;
3099;SDS011;1560;52.746;13.474;2023-09-19T03:36:05;2.40;;;1.90;;
3099;SDS011;1560;52.746;13.474;2023-09-19T03:38:34;7.27;;;3.20;;
3099;SDS011;1560;52.746;13.474;2023-09-19T03:41:02;3.43;;;2.27;;
3099;SDS011;1560;52.746;13.474;2023-09-19T03:43:32;5.80;;;2.37;;
3099;SDS011;1560;52.746;13.474;2023-09-19T03:46:01;9.47;;;3.00;;
3099;SDS011;1560;52.746;13.474;2023-09-19T03:48:31;4.90;;;2.33;;
3099;SDS011;1560;52.746;13.474;2023-09-19T03:50:59;4.50;;;2.30;;
3099;SDS011;1560;52.746;13.474;2023-09-19T03:53:36;3.77;;;2.50;;
3099;SDS011;1560;52.746;13.474;2023-09-19T03:56:05;5.33;;;2.63;;
3099;SDS011;1560;52.746;13.474;2023-09-19T03:58:34;4.47;;;2.80;;
3099;SDS011;1560;52.746;13.474;2023-09-19T04:01:04;3.73;;;2.27;;
3099;SDS011;1560;52.746;13.474;2023-09-19T04:03:33;4.77;;;2.80;;
3099;SDS011;1560;52.746;13.474;2023-09-19T04:06:03;4.67;;;2.67;;
3099;SDS011;1560;52.746;13.474;2023-09-19T04:08:41;4.20;;;2.47;;
3099;SDS011;1560;52.746;13.474;2023-09-19T04:11:10;4.00;;;2.63;;
3099;SDS011;1560;52.746;13.474;2023-09-19T04:13:39;5.00;;;3.33;;
3099;SDS011;1560;52.746;13.474;2023-09-19T04:18:43;3.57;;;2.33;;
3099;SDS011;1560;52.746;13.474;2023-09-19T04:23:48;5.60;;;2.57;;
3099;SDS011;1560;52.746;13.474;2023-09-19T04:26:17;4.70;;;2.50;;
3099;SDS011;1560;52.746;13.474;2023-09-19T04:28:45;6.20;;;2.00;;
3099;SDS011;1560;52.746;13.474;2023-09-19T04:31:23;6.43;;;2.80;;
3099;SDS011;1560;52.746;13.474;2023-09-19T04:33:52;6.03;;;2.23;;
3099;SDS011;1560;52.746;13.474;2023-09-19T04:36:21;4.13;;;2.60;;
3099;SDS011;1560;52.746;13.474;2023-09-19T04:38:49;3.60;;;2.23;;
3099;SDS011;1560;52.746;13.474;2023-09-19T04:41:20;2.73;;;2.00;;
3099;SDS011;1560;52.746;13.474;2023-09-19T04:43:57;4.60;;;2.30;;
3099;SDS011;1560;52.746;13.474;2023-09-19T04:46:25;3.63;;;3.10;;
3099;SDS011;1560;52.746;13.474;2023-09-19T04:48:54;3.47;;;2.60;;
3099;SDS011;1560;52.746;13.474;2023-09-19T04:51:24;3.53;;;2.60;;
3099;SDS011;1560;52.746;13.474;2023-09-19T04:53:54;7.67;;;3.23;;
3099;SDS011;1560;52.746;13.474;2023-09-19T04:56:22;5.30;;;3.33;;
3099;SDS011;1560;52.746;13.474;2023-09-19T04:59:00;3.70;;;2.80;;
3099;SDS011;1560;52.746;13.474;2023-09-19T05:01:29;5.80;;;2.63;;
3099;SDS011;1560;52.746;13.474;2023-09-19T05:03:57;4.23;;;2.70;;
3099;SDS011;1560;52.746;13.474;2023-09-19T05:06:27;3.70;;;2.67;;
3099;SDS011;1560;52.746;13.474;2023-09-19T05:08:55;4.40;;;2.53;;
3099;SDS011;1560;52.746;13.474;2023-09-19T05:11:24;3.40;;;2.20;;
3099;SDS011;1560;52.746;13.474;2023-09-19T05:13:53;4.77;;;2.63;;
3099;SDS011;1560;52.746;13.474;2023-09-19T05:16:31;5.23;;;3.13;;
3099;SDS011;1560;52.746;13.474;2023-09-19T05:21:36;6.03;;;2.53;;
3099;SDS011;1560;52.746;13.474;2023-09-19T05:24:05;7.33;;;3.20;;
3099;SDS011;1560;52.746;13.474;2023-09-19T05:26:34;3.30;;;2.40;;
3099;SDS011;1560;52.746;13.474;2023-09-19T05:29:03;4.20;;;2.90;;
3099;SDS011;1560;52.746;13.474;2023-09-19T05:31:34;3.50;;;2.97;;
3099;SDS011;1560;52.746;13.474;2023-09-19T05:34:05;5.10;;;3.50;;
3099;SDS011;1560;52.746;13.474;2023-09-19T05:36:35;3.43;;;2.87;;
3099;SDS011;1560;52.746;13.474;2023-09-19T05:39:04;4.20;;;3.00;;
3099;SDS011;1560;52.746;13.474;2023-09-19T05:41:41;5.70;;;3.37;;
3099;SDS011;1560;52.746;13.474;2023-09-19T05:44:10;3.60;;;3.03;;
3099;SDS011;1560;52.746;13.474;2023-09-19T05:46:40;4.20;;;3.20;;
3099;SDS011;1560;52.746;13.474;2023-09-19T05:49:08;6.23;;;3.17;;
3099;SDS011;1560;52.746;13.474;2023-09-19T05:51:37;10.23;;;3.70;;
3099;SDS011;1560;52.746;13.474;2023-09-19T05:54:06;4.40;;;3.60;;
3099;SDS011;1560;52.746;13.474;2023-09-19T05:56:43;4.33;;;2.90;;
3099;SDS011;1560;52.746;13.474;2023-09-19T05:59:13;7.53;;;3.67;;
3099;SDS011;1560;52.746;13.474;2023-09-19T06:01:50;5.03;;;2.93;;
3099;SDS011;1560;52.746;13.474;2023-09-19T06:04:19;5.50;;;3.63;;
3099;SDS011;1560;52.746;13.474;2023-09-19T06:06:48;4.43;;;2.93;;
3099;SDS011;1560;52.746;13.474;2023-09-19T06:09:16;5.33;;;3.13;;
3099;SDS011;1560;52.746;13.474;2023-09-19T06:11:45;5.67;;;3.63;;
3099;SDS011;1560;52.746;13.474;2023-09-19T06:14:14;5.80;;;3.97;;
3099;SDS011;1560;52.746;13.474;2023-09-19T06:16:47;5.57;;;3.47;;
3099;SDS011;1560;52.746;13.474;2023-09-19T06:19:16;4.00;;;2.80;;
3099;SDS011;1560;52.746;13.474;2023-09-19T06:21:53;5.70;;;3.20;;
3099;SDS011;1560;52.746;13.474;2023-09-19T06:24:22;4.90;;;4.23;;
3099;SDS011;1560;52.746;13.474;2023-09-19T06:26:51;4.43;;;2.90;;
3099;SDS011;1560;52.746;13.474;2023-09-19T06:29:21;6.00;;;4.10;;
3099;SDS011;1560;52.746;13.474;2023-09-19T06:31:58;4.00;;;2.80;;
3099;SDS011;1560;52.746;13.474;2023-09-19T06:34:27;5.53;;;3.50;;
3099;SDS011;1560;52.746;13.474;2023-09-19T06:36:56;5.47;;;3.13;;
3099;SDS011;1560;52.746;13.474;2023-09-19T06:39:24;6.57;;;3.53;;
3099;SDS011;1560;52.746;13.474;2023-09-19T06:41:53;6.43;;;3.40;;
3099;SDS011;1560;52.746;13.474;2023-09-19T06:44:22;5.33;;;3.13;;
3099;SDS011;1560;52.746;13.474;2023-09-19T06:46:59;4.47;;;3.57;;
3099;SDS011;1560;52.746;13.474;2023-09-19T06:49:28;5.90;;;2.60;;
3099;SDS011;1560;52.746;13.474;2023-09-19T06:51:57;4.70;;;3.13;;
3099;SDS011;1560;52.746;13.474;2023-09-19T06:54:27;5.27;;;3.00;;
3099;SDS011;1560;52.746;13.474;2023-09-19T06:56:57;10.93;;;3.80;;
3099;SDS011;1560;52.746;13.474;2023-09-19T06:59:26;8.03;;;3.23;;
3099;SDS011;1560;52.746;13.474;2023-09-19T07:01:54;6.00;;;3.40;;
3099;SDS011;1560;52.746;13.474;2023-09-19T07:04:24;4.77;;;4.20;;
3099;SDS011;1560;52.746;13.474;2023-09-19T07:06:53;5.47;;;2.83;;
3099;SDS011;1560;52.746;13.474;2023-09-19T07:09:22;3.90;;;3.50;;
3099;SDS011;1560;52.746;13.474;2023-09-19T07:11:59;4.77;;;4.00;;
3099;SDS011;1560;52.746;13.474;2023-09-19T07:14:28;7.03;;;3.83;;
3099;SDS011;1560;52.746;13.474;2023-09-19T07:16:57;7.50;;;4.10;;
3099;SDS011;1560;52.746;13.474;2023-09-19T07:19:34;5.93;;;3.30;;
3099;SDS011;1560;52.746;13.474;2023-09-19T07:22:02;5.57;;;4.10;;
3099;SDS011;1560;52.746;13.474;2023-09-19T07:24:33;4.57;;;3.50;;
3099;SDS011;1560;52.746;13.474;2023-09-19T07:27:03;6.03;;;3.70;;
3099;SDS011;1560;52.746;13.474;2023-09-19T07:29:35;6.80;;;3.60;;
3099;SDS011;1560;52.746;13.474;2023-09-19T07:32:05;6.23;;;3.83;;
3099;SDS011;1560;52.746;13.474;2023-09-19T07:34:35;5.73;;;3.33;;
3099;SDS011;1560;52.746;13.474;2023-09-19T07:37:05;5.60;;;4.00;;
3099;SDS011;1560;52.746;13.474;2023-09-19T07:39:34;4.80;;;3.73;;
3099;SDS011;1560;52.746;13.474;2023-09-19T07:42:03;5.67;;;3.90;;
3099;SDS011;1560;52.746;13.474;2023-09-19T07:44:33;5.00;;;3.77;;
3099;SDS011;1560;52.746;13.474;2023-09-19T07:47:03;6.87;;;3.40;;
3099;SDS011;1560;52.746;13.474;2023-09-19T07:49:32;4.53;;;3.07;;
3099;SDS011;1560;52.746;13.474;2023-09-19T07:52:00;7.33;;;3.70;;
3099;SDS011;1560;52.746;13.474;2023-09-19T07:54:31;7.83;;;3.43;;
3099;SDS011;1560;52.746;13.474;2023-09-19T07:57:01;6.60;;;3.63;;
3099;SDS011;1560;52.746;13.474;2023-09-19T08:02:07;11.17;;;4.27;;
3099;SDS011;1560;52.746;13.474;2023-09-19T08:04:37;5.17;;;3.13;;
3099;SDS011;1560;52.746;13.474;2023-09-19T08:09:42;4.53;;;2.83;;
3099;SDS011;1560;52.746;13.474;2023-09-19T08:12:13;3.90;;;2.63;;
3099;SDS011;1560;52.746;13.474;2023-09-19T08:14:41;6.53;;;3.10;;
3099;SDS011;1560;52.746;13.474;2023-09-19T08:17:10;3.60;;;2.63;;
3099;SDS011;1560;52.746;13.474;2023-09-19T08:19:39;7.07;;;2.40;;
3099;SDS011;1560;52.746;13.474;2023-09-19T08:22:08;6.47;;;2.50;;
3099;SDS011;1560;52.746;13.474;2023-09-19T08:24:37;7.23;;;2.50;;
3099;SDS011;1560;52.746;13.474;2023-09-19T08:27:09;3.80;;;2.63;;
3099;SDS011;1560;52.746;13.474;2023-09-19T08:32:14;4.40;;;2.37;;
3099;SDS011;1560;52.746;13.474;2023-09-19T08:34:44;5.27;;;2.87;;
3099;SDS011;1560;52.746;13.474;2023-09-19T08:37:13;6.80;;;3.30;;
3099;SDS011;1560;52.746;13.474;2023-09-19T08:39:43;4.80;;;3.10;;
3099;SDS011;1560;52.746;13.474;2023-09-19T08:42:12;4.23;;;2.60;;
3099;SDS011;1560;52.746;13.474;2023-09-19T08:44:43;5.00;;;3.17;;
3099;SDS011;1560;52.746;13.474;2023-09-19T08:47:15;4.00;;;3.57;;
3099;SDS011;1560;52.746;13.474;2023-09-19T08:49:53;6.83;;;3.80;;
3099;SDS011;1560;52.746;13.474;2023-09-19T08:52:25;8.63;;;4.00;;
3099;SDS011;1560;52.746;13.474;2023-09-19T08:55:02;5.63;;;3.73;;
3099;SDS011;1560;52.746;13.474;2023-09-19T08:57:36;5.13;;;3.40;;
3099;SDS011;1560;52.746;13.474;2023-09-19T09:00:11;5.37;;;3.40;;
3099;SDS011;1560;52.746;13.474;2023-09-19T09:02:43;4.33;;;3.10;;
3099;SDS011;1560;52.746;13.474;2023-09-19T09:05:14;8.73;;;4.00;;
3099;SDS011;1560;52.746;13.474;2023-09-19T09:07:45;6.60;;;3.57;;
3099;SDS011;1560;52.746;13.474;2023-09-19T09:10:15;6.30;;;3.80;;
3099;SDS011;1560;52.746;13.474;2023-09-19T09:12:44;4.80;;;3.40;;
3099;SDS011;1560;52.746;13.474;2023-09-19T09:15:14;3.67;;;3.03;;
3099;SDS011;1560;52.746;13.474;2023-09-19T09:17:51;8.87;;;3.50;;
3099;SDS011;1560;52.746;13.474;2023-09-19T09:20:21;3.83;;;3.23;;
3099;SDS011;1560;52.746;13.474;2023-09-19T09:22:53;5.23;;;2.93;;
3099;SDS011;1560;52.746;13.474;2023-09-19T09:25:24;4.00;;;3.10;;
3099;SDS011;1560;52.746;13.474;2023-09-19T09:28:14;4.73;;;2.90;;
3099;SDS011;1560;52.746;13.474;2023-09-19T09:30:47;6.53;;;2.87;;
3099;SDS011;1560;52.746;13.474;2023-09-19T09:33:16;4.83;;;3.33;;
3099;SDS011;1560;52.746;13.474;2023-09-19T09:35:50;4.73;;;3.57;;
3099;SDS011;1560;52.746;13.474;2023-09-19T09:40:56;6.60;;;3.20;;
3099;SDS011;1560;52.746;13.474;2023-09-19T09:43:29;5.43;;;3.30;;
3099;SDS011;1560;52.746;13.474;2023-09-19T09:46:11;6.93;;;3.90;;
3099;SDS011;1560;52.746;13.474;2023-09-19T09:51:35;4.50;;;3.03;;
3099;SDS011;1560;52.746;13.474;2023-09-19T09:54:13;5.93;;;2.90;;
3099;SDS011;1560;52.746;13.474;2023-09-19T09:56:52;9.20;;;3.80;;
3099;SDS011;1560;52.746;13.474;2023-09-19T09:59:48;4.73;;;3.37;;
3099;SDS011;1560;52.746;13.474;2023-09-19T10:02:20;4.73;;;3.23;;
3099;SDS011;1560;52.746;13.474;2023-09-19T10:04:52;4.47;;;2.80;;
3099;SDS011;1560;52.746;13.474;2023-09-19T10:07:26;5.50;;;3.10;;
3099;SDS011;1560;52.746;13.474;2023-09-19T10:10:00;7.43;;;3.10;;
3099;SDS011;1560;52.746;13.474;2023-09-19T10:12:42;4.83;;;3.23;;
3099;SDS011;1560;52.746;13.474;2023-09-19T10:15:20;6.60;;;3.70;;
3099;SDS011;1560;52.746;13.474;2023-09-19T10:17:50;5.97;;;3.43;;
3099;SDS011;1560;52.746;13.474;2023-09-19T10:20:22;3.87;;;2.80;;
3099;SDS011;1560;52.746;13.474;2023-09-19T10:23:03;5.10;;;2.90;;
3099;SDS011;1560;52.746;13.474;2023-09-19T10:25:36;7.83;;;4.00;;
3099;SDS011;1560;52.746;13.474;2023-09-19T10:28:07;5.00;;;3.37;;
3099;SDS011;1560;52.746;13.474;2023-09-19T10:30:41;8.33;;;4.00;;
3099;SDS011;1560;52.746;13.474;2023-09-19T10:33:11;4.10;;;3.47;;
3099;SDS011;1560;52.746;13.474;2023-09-19T10:35:41;5.97;;;3.53;;
3099;SDS011;1560;52.746;13.474;2023-09-19T10:38:12;7.13;;;3.43;;
3099;SDS011;1560;52.746;13.474;2023-09-19T10:40:41;5.30;;;3.50;;
3099;SDS011;1560;52.746;13.474;2023-09-19T10:43:12;6.90;;;3.70;;
3099;SDS011;1560;52.746;13.474;2023-09-19T10:45:50;9.03;;;3.73;;
3099;SDS011;1560;52.746;13.474;2023-09-19T10:48:21;6.00;;;3.70;;
3099;SDS011;1560;52.746;13.474;2023-09-19T10:50:52;6.50;;;3.43;;
3099;SDS011;1560;52.746;13.474;2023-09-19T10:53:26;5.53;;;3.30;;
3099;SDS011;1560;52.746;13.474;2023-09-19T10:55:58;5.20;;;3.47;;
3099;SDS011;1560;52.746;13.474;2023-09-19T10:58:31;4.73;;;4.10;;
3099;SDS011;1560;52.746;13.474;2023-09-19T11:01:02;8.00;;;3.43;;
3099;SDS011;1560;52.746;13.474;2023-09-19T11:03:33;3.87;;;3.07;;
3099;SDS011;1560;52.746;13.474;2023-09-19T11:06:04;7.07;;;3.50;;
3099;SDS011;1560;52.746;13.474;2023-09-19T11:08:54;5.63;;;3.20;;
3099;SDS011;1560;52.746;13.474;2023-09-19T11:11:40;7.60;;;2.97;;
3099;SDS011;1560;52.746;13.474;2023-09-19T11:14:15;11.10;;;4.87;;
3099;SDS011;1560;52.746;13.474;2023-09-19T11:20:19;8.27;;;3.30;;
3099;SDS011;1560;52.746;13.474;2023-09-19T11:23:18;9.30;;;2.87;;
3099;SDS011;1560;52.746;13.474;2023-09-19T11:25:52;9.23;;;3.33;;
3099;SDS011;1560;52.746;13.474;2023-09-19T11:28:30;7.93;;;3.23;;
3099;SDS011;1560;52.746;13.474;2023-09-19T11:31:40;5.93;;;3.10;;
3099;SDS011;1560;52.746;13.474;2023-09-19T11:33:49;5.63;;;3.13;;
3099;SDS011;1560;52.746;13.474;2023-09-19T11:36:35;8.47;;;3.47;;
3099;SDS011;1560;52.746;13.474;2023-09-19T11:39:05;5.07;;;2.60;;
3099;SDS011;1560;52.746;13.474;2023-09-19T11:41:39;5.50;;;3.20;;
3099;SDS011;1560;52.746;13.474;2023-09-19T11:47:06;7.80;;;4.17;;
3099;SDS011;1560;52.746;13.474;2023-09-19T11:49:36;11.30;;;3.50;;
3099;SDS011;1560;52.746;13.474;2023-09-19T11:52:08;5.60;;;3.37;;
3099;SDS011;1560;52.746;13.474;2023-09-19T11:54:40;4.23;;;3.03;;
3099;SDS011;1560;52.746;13.474;2023-09-19T11:57:10;8.97;;;3.60;;
3099;SDS011;1560;52.746;13.474;2023-09-19T11:59:42;3.13;;;2.40;;
3099;SDS011;1560;52.746;13.474;2023-09-19T12:02:27;7.53;;;3.00;;
3099;SDS011;1560;52.746;13.474;2023-09-19T12:04:57;5.87;;;2.33;;
3099;SDS011;1560;52.746;13.474;2023-09-19T12:07:26;6.73;;;3.37;;
3099;SDS011;1560;52.746;13.474;2023-09-19T12:10:03;10.10;;;2.70;;
3099;SDS011;1560;52.746;13.474;2023-09-19T12:12:34;5.00;;;2.90;;
3099;SDS011;1560;52.746;13.474;2023-09-19T12:15:04;3.60;;;2.43;;
3099;SDS011;1560;52.746;13.474;2023-09-19T12:17:37;5.47;;;2.70;;
3099;SDS011;1560;52.746;13.474;2023-09-19T12:20:09;7.27;;;2.93;;
3099;SDS011;1560;52.746;13.474;2023-09-19T12:22:41;10.00;;;2.50;;
3099;SDS011;1560;52.746;13.474;2023-09-19T12:25:19;5.37;;;2.30;;
3099;SDS011;1560;52.746;13.474;2023-09-19T12:27:48;5.20;;;2.57;;
3099;SDS011;1560;52.746;13.474;2023-09-19T12:30:19;7.60;;;2.77;;
3099;SDS011;1560;52.746;13.474;2023-09-19T12:32:49;4.83;;;2.30;;
3099;SDS011;1560;52.746;13.474;2023-09-19T12:35:27;3.80;;;2.30;;
3099;SDS011;1560;52.746;13.474;2023-09-19T12:37:56;6.53;;;2.60;;
3099;SDS011;1560;52.746;13.474;2023-09-19T12:40:26;5.13;;;2.20;;
3099;SDS011;1560;52.746;13.474;2023-09-19T12:42:55;5.10;;;2.30;;
3099;SDS011;1560;52.746;13.474;2023-09-19T12:45:24;4.17;;;2.03;;
3099;SDS011;1560;52.746;13.474;2023-09-19T12:51:04;4.07;;;2.10;;
3099;SDS011;1560;52.746;13.474;2023-09-19T12:56:10;4.07;;;2.37;;
3099;SDS011;1560;52.746;13.474;2023-09-19T12:58:49;2.37;;;1.70;;
3099;SDS011;1560;52.746;13.474;2023-09-19T13:01:22;5.97;;;2.17;;
3099;SDS011;1560;52.746;13.474;2023-09-19T13:06:51;7.10;;;2.00;;
3099;SDS011;1560;52.746;13.474;2023-09-19T13:09:22;5.07;;;2.10;;
3099;SDS011;1560;52.746;13.474;2023-09-19T13:11:53;4.00;;;1.63;;
3099;SDS011;1560;52.746;13.474;2023-09-19T13:14:30;2.80;;;1.77;;
3099;SDS011;1560;52.746;13.474;2023-09-19T13:17:01;5.43;;;1.77;;
3099;SDS011;1560;52.746;13.474;2023-09-19T13:22:36;5.30;;;2.60;;
3099;SDS011;1560;52.746;13.474;2023-09-19T13:25:07;7.53;;;2.40;;
3099;SDS011;1560;52.746;13.474;2023-09-19T13:27:39;4.57;;;1.57;;
3099;SDS011;1560;52.746;13.474;2023-09-19T13:30:09;6.03;;;2.40;;
3099;SDS011;1560;52.746;13.474;2023-09-19T13:32:47;6.97;;;1.90;;
3099;SDS011;1560;52.746;13.474;2023-09-19T13:35:17;4.43;;;1.50;;
3099;SDS011;1560;52.746;13.474;2023-09-19T13:37:46;6.17;;;2.23;;
3099;SDS011;1560;52.746;13.474;2023-09-19T13:40:17;6.03;;;1.80;;
3099;SDS011;1560;52.746;13.474;2023-09-19T13:42:46;7.53;;;2.27;;
3099;SDS011;1560;52.746;13.474;2023-09-19T13:45:14;4.63;;;2.00;;
3099;SDS011;1560;52.746;13.474;2023-09-19T13:47:45;6.80;;;2.60;;
3099;SDS011;1560;52.746;13.474;2023-09-19T13:50:15;4.93;;;2.40;;
3099;SDS011;1560;52.746;13.474;2023-09-19T13:52:47;3.50;;;2.33;;
3099;SDS011;1560;52.746;13.474;2023-09-19T13:55:17;3.20;;;1.47;;
3099;SDS011;1560;52.746;13.474;2023-09-19T14:00:23;5.27;;;2.10;;
3099;SDS011;1560;52.746;13.474;2023-09-19T14:02:52;2.50;;;1.63;;
3099;SDS011;1560;52.746;13.474;2023-09-19T14:05:20;8.63;;;2.10;;
3099;SDS011;1560;52.746;13.474;2023-09-19T14:07:49;4.63;;;1.70;;
3099;SDS011;1560;52.746;13.474;2023-09-19T14:10:19;9.10;;;2.07;;
3099;SDS011;1560;52.746;13.474;2023-09-19T14:12:48;4.13;;;2.10;;
3099;SDS011;1560;52.746;13.474;2023-09-19T14:15:17;4.27;;;1.73;;
3099;SDS011;1560;52.746;13.474;2023-09-19T14:17:46;3.53;;;1.80;;
3099;SDS011;1560;52.746;13.474;2023-09-19T14:20:15;3.73;;;1.80;;
3099;SDS011;1560;52.746;13.474;2023-09-19T14:22:43;4.37;;;1.97;;
3099;SDS011;1560;52.746;13.474;2023-09-19T14:25:12;3.60;;;2.20;;
3099;SDS011;1560;52.746;13.474;2023-09-19T14:27:41;5.80;;;2.10;;
3099;SDS011;1560;52.746;13.474;2023-09-19T14:30:10;6.70;;;1.90;;
3099;SDS011;1560;52.746;13.474;2023-09-19T14:32:40;4.43;;;2.20;;
3099;SDS011;1560;52.746;13.474;2023-09-19T14:35:08;4.40;;;1.87;;
3099;SDS011;1560;52.746;13.474;2023-09-19T14:37:37;3.87;;;2.03;;
3099;SDS011;1560;52.746;13.474;2023-09-19T14:40:08;9.40;;;2.40;;
3099;SDS011;1560;52.746;13.474;2023-09-19T14:42:39;4.53;;;1.70;;
3099;SDS011;1560;52.746;13.474;2023-09-19T14:45:10;4.83;;;2.40;;
3099;SDS011;1560;52.746;13.474;2023-09-19T14:47:41;3.40;;;1.97;;
3099;SDS011;1560;52.746;13.474;2023-09-19T14:50:10;4.87;;;1.97;;
3099;SDS011;1560;52.746;13.474;2023-09-19T14:52:39;4.23;;;2.50;;
3099;SDS011;1560;52.746;13.474;2023-09-19T14:57:43;3.27;;;2.17;;
3099;SDS011;1560;52.746;13.474;2023-09-19T15:00:14;3.73;;;1.93;;
3099;SDS011;1560;52.746;13.474;2023-09-19T15:02:52;3.60;;;1.90;;
3099;SDS011;1560;52.746;13.474;2023-09-19T15:05:22;7.47;;;2.20;;
3099;SDS011;1560;52.746;13.474;2023-09-19T15:07:51;4.23;;;1.80;;
3099;SDS011;1560;52.746;13.474;2023-09-19T15:10:19;4.10;;;2.17;;
3099;SDS011;1560;52.746;13.474;2023-09-19T15:12:48;3.87;;;2.00;;
3099;SDS011;1560;52.746;13.474;2023-09-19T15:15:17;5.23;;;1.80;;
3099;SDS011;1560;52.746;13.474;2023-09-19T15:17:45;3.93;;;2.13;;
3099;SDS011;1560;52.746;13.474;2023-09-19T15:20:14;4.87;;;2.00;;
3099;SDS011;1560;52.746;13.474;2023-09-19T15:22:44;4.57;;;2.33;;
3099;SDS011;1560;52.746;13.474;2023-09-19T15:25:12;2.50;;;1.70;;
3099;SDS011;1560;52.746;13.474;2023-09-19T15:27:42;5.33;;;3.03;;
3099;SDS011;1560;52.746;13.474;2023-09-19T15:30:12;5.40;;;2.50;;
3099;SDS011;1560;52.746;13.474;2023-09-19T15:32:41;3.47;;;2.17;;
3099;SDS011;1560;52.746;13.474;2023-09-19T15:35:10;4.13;;;2.47;;
3099;SDS011;1560;52.746;13.474;2023-09-19T15:37:40;4.73;;;3.20;;
3099;SDS011;1560;52.746;13.474;2023-09-19T15:40:09;5.70;;;2.67;;
3099;SDS011;1560;52.746;13.474;2023-09-19T15:42:39;5.00;;;2.30;;
3099;SDS011;1560;52.746;13.474;2023-09-19T15:45:17;4.03;;;1.80;;
3099;SDS011;1560;52.746;13.474;2023-09-19T15:47:45;6.20;;;2.60;;
3099;SDS011;1560;52.746;13.474;2023-09-19T15:50:14;4.60;;;2.13;;
3099;SDS011;1560;52.746;13.474;2023-09-19T15:52:53;6.70;;;2.30;;
3099;SDS011;1560;52.746;13.474;2023-09-19T15:55:22;4.20;;;1.90;;
3099;SDS011;1560;52.746;13.474;2023-09-19T15:57:52;7.57;;;2.53;;
3099;SDS011;1560;52.746;13.474;2023-09-19T16:00:21;4.23;;;2.50;;
3099;SDS011;1560;52.746;13.474;2023-09-19T16:02:49;6.23;;;2.90;;
3099;SDS011;1560;52.746;13.474;2023-09-19T16:05:19;4.97;;;2.00;;
3099;SDS011;1560;52.746;13.474;2023-09-19T16:07:47;3.10;;;2.13;;
3099;SDS011;1560;52.746;13.474;2023-09-19T16:10:16;3.97;;;1.97;;